sensor_id;sensor_type;location;lat;lon;timestamp;temperature;humidity
71142;DHT22;58808;59.366;17.970;2023-08-08T00:01:04;17.40;99.90
71142;DHT22;58808;59.366;17.970;2023-08-08T00:03:30;17.40;99.90
71142;DHT22;58808;59.366;17.970;2023-08-08T00:05:56;17.40;99.90
71142;DHT22;58808;59.366;17.970;2023-08-08T00:08:21;17.40;99.90
71142;DHT22;58808;59.366;17.970;2023-08-08T00:10:47;17.40;99.90
71142;DHT22;58808;59.366;17.970;2023-08-08T00:13:13;17.50;99.90
71142;DHT22;58808;59.366;17.970;2023-08-08T00:15:38;17.40;99.90
71142;DHT22;58808;59.366;17.970;2023-08-08T00:18:05;17.40;99.90
71142;DHT22;58808;59.366;17.970;2023-08-08T00:20:30;17.40;99.90
71142;DHT22;58808;59.366;17.970;2023-08-08T00:22:56;17.40;99.90
71142;DHT22;58808;59.366;17.970;2023-08-08T00:25:22;17.40;99.90
71142;DHT22;58808;59.366;17.970;2023-08-08T00:27:48;17.50;99.90
71142;DHT22;58808;59.366;17.970;2023-08-08T00:30:15;17.50;99.90
71142;DHT22;58808;59.366;17.970;2023-08-08T00:32:40;17.40;99.90
71142;DHT22;58808;59.366;17.970;2023-08-08T00:35:06;17.40;99.90
71142;DHT22;58808;59.366;17.970;2023-08-08T00:37:32;17.40;99.90
71142;DHT22;58808;59.366;17.970;2023-08-08T00:39:58;17.40;99.90
71142;DHT22;58808;59.366;17.970;2023-08-08T00:42:24;17.40;99.90
71142;DHT22;58808;59.366;17.970;2023-08-08T00:44:49;17.40;99.90
71142;DHT22;58808;59.366;17.970;2023-08-08T00:47:15;17.30;99.90
71142;DHT22;58808;59.366;17.970;2023-08-08T00:49:41;17.30;99.90
71142;DHT22;58808;59.366;17.970;2023-08-08T00:52:09;17.30;99.90
71142;DHT22;58808;59.366;17.970;2023-08-08T00:54:35;17.30;99.90
71142;DHT22;58808;59.366;17.970;2023-08-08T00:57:01;17.30;99.90
71142;DHT22;58808;59.366;17.970;2023-08-08T00:59:27;17.30;99.90
71142;DHT22;58808;59.366;17.970;2023-08-08T01:01:53;17.30;99.90
71142;DHT22;58808;59.366;17.970;2023-08-08T01:04:19;17.20;99.90
71142;DHT22;58808;59.366;17.970;2023-08-08T01:06:58;17.20;99.90
71142;DHT22;58808;59.366;17.970;2023-08-08T01:11:55;17.20;99.90
71142;DHT22;58808;59.366;17.970;2023-08-08T01:14:21;17.20;99.90
71142;DHT22;58808;59.366;17.970;2023-08-08T01:16:50;17.20;99.90
71142;DHT22;58808;59.366;17.970;2023-08-08T01:19:25;17.20;99.90
71142;DHT22;58808;59.366;17.970;2023-08-08T01:21:53;17.20;99.90
71142;DHT22;58808;59.366;17.970;2023-08-08T01:26:46;17.20;99.90
71142;DHT22;58808;59.366;17.970;2023-08-08T01:29:11;17.20;99.90
71142;DHT22;58808;59.366;17.970;2023-08-08T01:31:37;17.20;99.90
71142;DHT22;58808;59.366;17.970;2023-08-08T01:34:02;17.20;99.90
71142;DHT22;58808;59.366;17.970;2023-08-08T01:36:51;17.20;99.90
71142;DHT22;58808;59.366;17.970;2023-08-08T01:39:29;17.20;99.90
71142;DHT22;58808;59.366;17.970;2023-08-08T01:41:56;17.20;99.90
71142;DHT22;58808;59.366;17.970;2023-08-08T01:44:22;17.20;99.90
71142;DHT22;58808;59.366;17.970;2023-08-08T01:46:53;17.20;99.90
71142;DHT22;58808;59.366;17.970;2023-08-08T01:49:19;17.20;99.90
71142;DHT22;58808;59.366;17.970;2023-08-08T01:51:44;17.20;99.90
71142;DHT22;58808;59.366;17.970;2023-08-08T01:54:10;17.20;99.90
71142;DHT22;58808;59.366;17.970;2023-08-08T01:56:36;17.20;99.90
71142;DHT22;58808;59.366;17.970;2023-08-08T01:59:02;17.20;99.90
71142;DHT22;58808;59.366;17.970;2023-08-08T02:01:27;17.20;99.90
71142;DHT22;58808;59.366;17.970;2023-08-08T02:03:53;17.20;99.90
71142;DHT22;58808;59.366;17.970;2023-08-08T02:06:19;17.20;99.90
71142;DHT22;58808;59.366;17.970;2023-08-08T02:08:45;17.20;99.90
71142;DHT22;58808;59.366;17.970;2023-08-08T02:11:11;17.10;99.90
71142;DHT22;58808;59.366;17.970;2023-08-08T02:13:37;17.10;99.90
71142;DHT22;58808;59.366;17.970;2023-08-08T02:16:02;17.10;99.90
71142;DHT22;58808;59.366;17.970;2023-08-08T02:18:28;17.10;99.90
71142;DHT22;58808;59.366;17.970;2023-08-08T02:20:54;17.10;99.90
71142;DHT22;58808;59.366;17.970;2023-08-08T02:23:19;17.10;99.90
71142;DHT22;58808;59.366;17.970;2023-08-08T02:25:45;17.00;99.90
71142;DHT22;58808;59.366;17.970;2023-08-08T02:28:11;17.00;99.90
71142;DHT22;58808;59.366;17.970;2023-08-08T02:30:37;17.10;99.90
71142;DHT22;58808;59.366;17.970;2023-08-08T02:33:03;17.00;99.90
71142;DHT22;58808;59.366;17.970;2023-08-08T02:35:29;17.00;99.90
71142;DHT22;58808;59.366;17.970;2023-08-08T02:37:55;17.00;99.90
71142;DHT22;58808;59.366;17.970;2023-08-08T02:40:21;17.00;99.90
71142;DHT22;58808;59.366;17.970;2023-08-08T02:42:49;17.00;99.90
71142;DHT22;58808;59.366;17.970;2023-08-08T02:45:15;17.00;99.90
71142;DHT22;58808;59.366;17.970;2023-08-08T02:47:40;16.90;99.90
71142;DHT22;58808;59.366;17.970;2023-08-08T02:50:06;16.90;99.90
71142;DHT22;58808;59.366;17.970;2023-08-08T02:52:32;16.90;99.90
71142;DHT22;58808;59.366;17.970;2023-08-08T02:54:58;16.90;99.90
71142;DHT22;58808;59.366;17.970;2023-08-08T02:57:23;16.90;99.90
71142;DHT22;58808;59.366;17.970;2023-08-08T02:59:49;16.90;99.90
71142;DHT22;58808;59.366;17.970;2023-08-08T03:02:15;16.90;99.90
71142;DHT22;58808;59.366;17.970;2023-08-08T03:04:40;16.90;99.90
71142;DHT22;58808;59.366;17.970;2023-08-08T03:07:06;16.90;99.90
71142;DHT22;58808;59.366;17.970;2023-08-08T03:09:31;16.90;99.90
71142;DHT22;58808;59.366;17.970;2023-08-08T03:11:57;16.90;99.90
71142;DHT22;58808;59.366;17.970;2023-08-08T03:14:23;16.90;99.90
71142;DHT22;58808;59.366;17.970;2023-08-08T03:16:48;16.90;99.90
71142;DHT22;58808;59.366;17.970;2023-08-08T03:19:14;16.90;99.90
71142;DHT22;58808;59.366;17.970;2023-08-08T03:21:40;16.80;99.90
71142;DHT22;58808;59.366;17.970;2023-08-08T03:24:05;16.80;99.90
71142;DHT22;58808;59.366;17.970;2023-08-08T03:26:31;16.80;99.90
71142;DHT22;58808;59.366;17.970;2023-08-08T03:28:57;16.80;99.90
71142;DHT22;58808;59.366;17.970;2023-08-08T03:31:22;16.80;99.90
71142;DHT22;58808;59.366;17.970;2023-08-08T03:33:49;16.70;99.90
71142;DHT22;58808;59.366;17.970;2023-08-08T03:36:15;16.70;99.90
71142;DHT22;58808;59.366;17.970;2023-08-08T03:38:40;16.70;99.90
71142;DHT22;58808;59.366;17.970;2023-08-08T03:41:09;16.70;99.90
71142;DHT22;58808;59.366;17.970;2023-08-08T03:43:35;16.70;99.90
71142;DHT22;58808;59.366;17.970;2023-08-08T03:46:01;16.60;99.90
71142;DHT22;58808;59.366;17.970;2023-08-08T03:48:26;16.60;99.90
71142;DHT22;58808;59.366;17.970;2023-08-08T03:50:52;16.60;99.90
71142;DHT22;58808;59.366;17.970;2023-08-08T03:53:18;16.60;99.90
71142;DHT22;58808;59.366;17.970;2023-08-08T03:55:43;16.60;99.90
71142;DHT22;58808;59.366;17.970;2023-08-08T03:58:09;16.60;99.90
71142;DHT22;58808;59.366;17.970;2023-08-08T04:00:35;16.60;99.90
71142;DHT22;58808;59.366;17.970;2023-08-08T04:03:01;16.50;99.90
71142;DHT22;58808;59.366;17.970;2023-08-08T04:05:26;16.50;99.90
71142;DHT22;58808;59.366;17.970;2023-08-08T04:07:52;16.50;99.90
71142;DHT22;58808;59.366;17.970;2023-08-08T04:10:18;16.50;99.90
71142;DHT22;58808;59.366;17.970;2023-08-08T04:12:43;16.50;99.90
71142;DHT22;58808;59.366;17.970;2023-08-08T04:15:09;16.50;99.90
71142;DHT22;58808;59.366;17.970;2023-08-08T04:17:35;16.40;99.90
71142;DHT22;58808;59.366;17.970;2023-08-08T04:20:01;16.40;99.90
71142;DHT22;58808;59.366;17.970;2023-08-08T04:22:26;16.40;99.90
71142;DHT22;58808;59.366;17.970;2023-08-08T04:24:52;16.40;99.90
71142;DHT22;58808;59.366;17.970;2023-08-08T04:27:18;16.40;99.90
71142;DHT22;58808;59.366;17.970;2023-08-08T04:29:43;16.40;99.90
71142;DHT22;58808;59.366;17.970;2023-08-08T04:32:09;16.40;99.90
71142;DHT22;58808;59.366;17.970;2023-08-08T04:34:35;16.30;99.90
71142;DHT22;58808;59.366;17.970;2023-08-08T04:37:00;16.30;99.90
71142;DHT22;58808;59.366;17.970;2023-08-08T04:39:26;16.20;99.90
71142;DHT22;58808;59.366;17.970;2023-08-08T04:41:52;16.20;99.90
71142;DHT22;58808;59.366;17.970;2023-08-08T04:44:17;16.10;99.90
71142;DHT22;58808;59.366;17.970;2023-08-08T04:46:43;16.10;99.90
71142;DHT22;58808;59.366;17.970;2023-08-08T04:49:09;16.10;99.90
71142;DHT22;58808;59.366;17.970;2023-08-08T04:51:34;16.10;99.90
71142;DHT22;58808;59.366;17.970;2023-08-08T04:54:00;16.00;99.90
71142;DHT22;58808;59.366;17.970;2023-08-08T04:56:26;16.00;99.90
71142;DHT22;58808;59.366;17.970;2023-08-08T04:58:51;16.00;99.90
71142;DHT22;58808;59.366;17.970;2023-08-08T05:01:17;16.00;99.90
71142;DHT22;58808;59.366;17.970;2023-08-08T05:03:46;16.00;99.90
71142;DHT22;58808;59.366;17.970;2023-08-08T05:06:12;16.00;99.90
71142;DHT22;58808;59.366;17.970;2023-08-08T05:08:37;16.00;99.90
71142;DHT22;58808;59.366;17.970;2023-08-08T05:11:03;15.90;99.90
71142;DHT22;58808;59.366;17.970;2023-08-08T05:13:29;15.90;99.90
71142;DHT22;58808;59.366;17.970;2023-08-08T05:15:54;15.90;99.90
71142;DHT22;58808;59.366;17.970;2023-08-08T05:18:20;15.80;99.90
71142;DHT22;58808;59.366;17.970;2023-08-08T05:20:46;15.80;99.90
71142;DHT22;58808;59.366;17.970;2023-08-08T05:23:11;15.80;99.90
71142;DHT22;58808;59.366;17.970;2023-08-08T05:25:37;15.80;99.90
71142;DHT22;58808;59.366;17.970;2023-08-08T05:28:03;15.80;99.90
71142;DHT22;58808;59.366;17.970;2023-08-08T05:30:29;15.80;99.90
71142;DHT22;58808;59.366;17.970;2023-08-08T05:32:54;15.70;99.90
71142;DHT22;58808;59.366;17.970;2023-08-08T05:35:20;15.70;99.90
71142;DHT22;58808;59.366;17.970;2023-08-08T05:37:46;15.70;99.90
71142;DHT22;58808;59.366;17.970;2023-08-08T05:40:11;15.80;99.90
71142;DHT22;58808;59.366;17.970;2023-08-08T05:42:38;15.80;99.90
71142;DHT22;58808;59.366;17.970;2023-08-08T05:45:04;15.70;99.90
71142;DHT22;58808;59.366;17.970;2023-08-08T05:47:30;15.70;99.90
71142;DHT22;58808;59.366;17.970;2023-08-08T05:49:56;15.70;99.90
71142;DHT22;58808;59.366;17.970;2023-08-08T05:52:21;15.70;99.90
71142;DHT22;58808;59.366;17.970;2023-08-08T05:54:47;15.70;99.90
71142;DHT22;58808;59.366;17.970;2023-08-08T05:57:13;15.70;99.90
71142;DHT22;58808;59.366;17.970;2023-08-08T05:59:39;15.60;99.90
71142;DHT22;58808;59.366;17.970;2023-08-08T06:02:04;15.60;99.90
71142;DHT22;58808;59.366;17.970;2023-08-08T06:04:30;15.70;99.90
71142;DHT22;58808;59.366;17.970;2023-08-08T06:06:56;15.60;99.90
71142;DHT22;58808;59.366;17.970;2023-08-08T06:09:22;15.60;99.90
71142;DHT22;58808;59.366;17.970;2023-08-08T06:11:48;15.60;99.90
71142;DHT22;58808;59.366;17.970;2023-08-08T06:14:13;15.60;99.90
71142;DHT22;58808;59.366;17.970;2023-08-08T06:16:39;15.50;99.90
71142;DHT22;58808;59.366;17.970;2023-08-08T06:19:05;15.60;99.90
71142;DHT22;58808;59.366;17.970;2023-08-08T06:21:31;15.60;99.90
71142;DHT22;58808;59.366;17.970;2023-08-08T06:23:57;15.50;99.90
71142;DHT22;58808;59.366;17.970;2023-08-08T06:26:23;15.60;99.90
71142;DHT22;58808;59.366;17.970;2023-08-08T06:28:49;15.60;99.90
71142;DHT22;58808;59.366;17.970;2023-08-08T06:31:17;15.70;99.90
71142;DHT22;58808;59.366;17.970;2023-08-08T06:33:43;15.70;99.90
71142;DHT22;58808;59.366;17.970;2023-08-08T06:36:09;15.70;99.90
71142;DHT22;58808;59.366;17.970;2023-08-08T06:38:35;15.60;99.90
71142;DHT22;58808;59.366;17.970;2023-08-08T06:41:02;15.50;99.90
71142;DHT22;58808;59.366;17.970;2023-08-08T06:43:28;15.50;99.90
71142;DHT22;58808;59.366;17.970;2023-08-08T06:45:53;15.50;99.90
71142;DHT22;58808;59.366;17.970;2023-08-08T06:48:19;15.50;99.90
71142;DHT22;58808;59.366;17.970;2023-08-08T06:50:45;15.50;99.90
71142;DHT22;58808;59.366;17.970;2023-08-08T06:53:10;15.60;99.90
71142;DHT22;58808;59.366;17.970;2023-08-08T06:55:36;15.60;99.90
71142;DHT22;58808;59.366;17.970;2023-08-08T06:58:02;15.60;99.90
71142;DHT22;58808;59.366;17.970;2023-08-08T07:00:28;15.50;99.90
71142;DHT22;58808;59.366;17.970;2023-08-08T07:02:55;15.50;99.90
71142;DHT22;58808;59.366;17.970;2023-08-08T07:05:20;15.60;99.90
71142;DHT22;58808;59.366;17.970;2023-08-08T07:07:49;15.50;99.90
71142;DHT22;58808;59.366;17.970;2023-08-08T07:10:15;15.60;99.90
71142;DHT22;58808;59.366;17.970;2023-08-08T07:12:41;15.60;99.90
71142;DHT22;58808;59.366;17.970;2023-08-08T07:15:07;15.70;99.90
71142;DHT22;58808;59.366;17.970;2023-08-08T07:17:33;15.60;99.90
71142;DHT22;58808;59.366;17.970;2023-08-08T07:19:59;15.70;99.90
71142;DHT22;58808;59.366;17.970;2023-08-08T07:22:25;15.70;99.90
71142;DHT22;58808;59.366;17.970;2023-08-08T07:24:51;15.80;99.90
71142;DHT22;58808;59.366;17.970;2023-08-08T07:27:17;15.70;99.90
71142;DHT22;58808;59.366;17.970;2023-08-08T07:29:42;15.80;99.90
71142;DHT22;58808;59.366;17.970;2023-08-08T07:32:08;15.80;99.90
71142;DHT22;58808;59.366;17.970;2023-08-08T07:34:34;15.70;99.90
71142;DHT22;58808;59.366;17.970;2023-08-08T07:36:59;15.70;99.90
71142;DHT22;58808;59.366;17.970;2023-08-08T07:39:25;15.80;99.90
71142;DHT22;58808;59.366;17.970;2023-08-08T07:41:52;15.80;99.90
71142;DHT22;58808;59.366;17.970;2023-08-08T07:44:17;15.90;99.90
71142;DHT22;58808;59.366;17.970;2023-08-08T07:46:43;15.80;99.90
71142;DHT22;58808;59.366;17.970;2023-08-08T07:49:09;15.80;99.90
71142;DHT22;58808;59.366;17.970;2023-08-08T07:51:35;15.90;99.90
71142;DHT22;58808;59.366;17.970;2023-08-08T07:54:01;15.90;99.90
71142;DHT22;58808;59.366;17.970;2023-08-08T07:56:27;15.80;99.90
71142;DHT22;58808;59.366;17.970;2023-08-08T07:58:53;15.90;99.90
71142;DHT22;58808;59.366;17.970;2023-08-08T08:01:18;15.90;99.90
71142;DHT22;58808;59.366;17.970;2023-08-08T08:03:44;15.90;99.90
71142;DHT22;58808;59.366;17.970;2023-08-08T08:06:10;15.80;99.90
71142;DHT22;58808;59.366;17.970;2023-08-08T08:08:36;15.80;99.90
71142;DHT22;58808;59.366;17.970;2023-08-08T08:11:02;15.90;99.90
71142;DHT22;58808;59.366;17.970;2023-08-08T08:13:28;15.90;99.90
71142;DHT22;58808;59.366;17.970;2023-08-08T08:15:54;16.10;99.90
71142;DHT22;58808;59.366;17.970;2023-08-08T08:18:19;16.20;99.90
71142;DHT22;58808;59.366;17.970;2023-08-08T08:20:46;16.10;99.90
71142;DHT22;58808;59.366;17.970;2023-08-08T08:23:13;16.10;99.90
71142;DHT22;58808;59.366;17.970;2023-08-08T08:25:38;16.10;99.90
71142;DHT22;58808;59.366;17.970;2023-08-08T08:28:04;16.00;99.90
71142;DHT22;58808;59.366;17.970;2023-08-08T08:30:30;16.00;99.90
71142;DHT22;58808;59.366;17.970;2023-08-08T08:32:56;16.00;99.90
71142;DHT22;58808;59.366;17.970;2023-08-08T08:35:24;16.00;99.90
71142;DHT22;58808;59.366;17.970;2023-08-08T08:37:50;16.00;99.90
71142;DHT22;58808;59.366;17.970;2023-08-08T08:40:17;15.90;99.90
71142;DHT22;58808;59.366;17.970;2023-08-08T08:42:43;16.00;99.90
71142;DHT22;58808;59.366;17.970;2023-08-08T08:45:11;16.00;99.90
71142;DHT22;58808;59.366;17.970;2023-08-08T08:47:40;16.10;99.90
71142;DHT22;58808;59.366;17.970;2023-08-08T08:50:09;16.10;99.90
71142;DHT22;58808;59.366;17.970;2023-08-08T08:52:35;16.00;99.90
71142;DHT22;58808;59.366;17.970;2023-08-08T08:55:02;16.00;99.90
71142;DHT22;58808;59.366;17.970;2023-08-08T08:57:29;16.00;99.90
71142;DHT22;58808;59.366;17.970;2023-08-08T08:59:54;16.00;99.90
71142;DHT22;58808;59.366;17.970;2023-08-08T09:02:20;16.00;99.90
71142;DHT22;58808;59.366;17.970;2023-08-08T09:04:47;16.00;99.90
71142;DHT22;58808;59.366;17.970;2023-08-08T09:07:13;16.00;99.90
71142;DHT22;58808;59.366;17.970;2023-08-08T09:09:43;15.90;99.90
71142;DHT22;58808;59.366;17.970;2023-08-08T09:12:08;15.90;99.90
71142;DHT22;58808;59.366;17.970;2023-08-08T09:14:40;16.00;99.90
71142;DHT22;58808;59.366;17.970;2023-08-08T09:17:10;15.90;99.90
71142;DHT22;58808;59.366;17.970;2023-08-08T09:19:36;15.90;99.90
71142;DHT22;58808;59.366;17.970;2023-08-08T09:22:02;15.90;99.90
71142;DHT22;58808;59.366;17.970;2023-08-08T09:24:28;15.90;99.90
71142;DHT22;58808;59.366;17.970;2023-08-08T09:26:54;15.90;99.90
71142;DHT22;58808;59.366;17.970;2023-08-08T09:29:19;15.90;99.90
71142;DHT22;58808;59.366;17.970;2023-08-08T09:31:46;15.90;99.90
71142;DHT22;58808;59.366;17.970;2023-08-08T09:34:13;15.90;99.90
71142;DHT22;58808;59.366;17.970;2023-08-08T09:36:40;15.90;99.90
71142;DHT22;58808;59.366;17.970;2023-08-08T09:39:05;15.80;99.90
71142;DHT22;58808;59.366;17.970;2023-08-08T09:41:32;15.90;99.90
71142;DHT22;58808;59.366;17.970;2023-08-08T09:43:59;15.90;99.90
71142;DHT22;58808;59.366;17.970;2023-08-08T09:46:24;15.80;99.90
71142;DHT22;58808;59.366;17.970;2023-08-08T09:48:50;15.90;99.90
71142;DHT22;58808;59.366;17.970;2023-08-08T09:51:17;16.00;99.90
71142;DHT22;58808;59.366;17.970;2023-08-08T09:53:43;16.00;99.90
71142;DHT22;58808;59.366;17.970;2023-08-08T09:56:12;16.00;99.90
71142;DHT22;58808;59.366;17.970;2023-08-08T09:58:39;16.00;99.90
71142;DHT22;58808;59.366;17.970;2023-08-08T10:01:05;16.10;99.90
71142;DHT22;58808;59.366;17.970;2023-08-08T10:03:32;16.10;99.90
71142;DHT22;58808;59.366;17.970;2023-08-08T10:05:58;16.10;99.90
71142;DHT22;58808;59.366;17.970;2023-08-08T10:08:24;16.00;99.90
71142;DHT22;58808;59.366;17.970;2023-08-08T10:10:50;16.00;99.90
71142;DHT22;58808;59.366;17.970;2023-08-08T10:15:46;16.00;99.90
71142;DHT22;58808;59.366;17.970;2023-08-08T10:18:13;16.00;99.90
71142;DHT22;58808;59.366;17.970;2023-08-08T10:20:42;16.00;99.90
71142;DHT22;58808;59.366;17.970;2023-08-08T10:23:09;16.00;99.90
71142;DHT22;58808;59.366;17.970;2023-08-08T10:25:35;15.90;99.90
71142;DHT22;58808;59.366;17.970;2023-08-08T10:28:12;15.80;99.90
71142;DHT22;58808;59.366;17.970;2023-08-08T10:30:53;15.80;99.90
71142;DHT22;58808;59.366;17.970;2023-08-08T10:33:24;15.70;99.90
71142;DHT22;58808;59.366;17.970;2023-08-08T10:38:23;15.60;99.90
71142;DHT22;58808;59.366;17.970;2023-08-08T10:40:56;15.60;99.90
71142;DHT22;58808;59.366;17.970;2023-08-08T10:43:28;15.50;99.90
71142;DHT22;58808;59.366;17.970;2023-08-08T10:46:04;15.50;99.90
71142;DHT22;58808;59.366;17.970;2023-08-08T10:48:30;15.50;99.90
71142;DHT22;58808;59.366;17.970;2023-08-08T10:50:58;15.40;99.90
71142;DHT22;58808;59.366;17.970;2023-08-08T10:53:28;15.40;99.90
71142;DHT22;58808;59.366;17.970;2023-08-08T10:56:01;15.40;99.90
71142;DHT22;58808;59.366;17.970;2023-08-08T10:58:38;15.40;99.90
71142;DHT22;58808;59.366;17.970;2023-08-08T11:01:05;15.30;99.90
71142;DHT22;58808;59.366;17.970;2023-08-08T11:03:40;15.30;99.90
71142;DHT22;58808;59.366;17.970;2023-08-08T11:06:10;15.30;99.90
71142;DHT22;58808;59.366;17.970;2023-08-08T11:08:37;15.20;99.90
71142;DHT22;58808;59.366;17.970;2023-08-08T11:11:05;15.30;99.90
71142;DHT22;58808;59.366;17.970;2023-08-08T11:13:31;15.20;99.90
71142;DHT22;58808;59.366;17.970;2023-08-08T11:15:57;15.10;99.90
71142;DHT22;58808;59.366;17.970;2023-08-08T11:18:23;15.10;99.90
71142;DHT22;58808;59.366;17.970;2023-08-08T11:20:50;15.10;99.90
71142;DHT22;58808;59.366;17.970;2023-08-08T11:23:16;15.10;99.90
71142;DHT22;58808;59.366;17.970;2023-08-08T11:25:44;15.00;99.90
71142;DHT22;58808;59.366;17.970;2023-08-08T11:28:10;15.00;99.90
71142;DHT22;58808;59.366;17.970;2023-08-08T11:30:44;14.90;99.90
71142;DHT22;58808;59.366;17.970;2023-08-08T11:33:13;14.80;99.90
71142;DHT22;58808;59.366;17.970;2023-08-08T11:35:44;14.80;99.90
71142;DHT22;58808;59.366;17.970;2023-08-08T11:38:13;14.80;99.90
71142;DHT22;58808;59.366;17.970;2023-08-08T11:40:39;14.80;99.90
71142;DHT22;58808;59.366;17.970;2023-08-08T11:43:05;14.80;99.90
71142;DHT22;58808;59.366;17.970;2023-08-08T11:45:32;14.90;99.90
71142;DHT22;58808;59.366;17.970;2023-08-08T11:47:58;14.90;99.90
71142;DHT22;58808;59.366;17.970;2023-08-08T11:50:25;15.00;99.90
71142;DHT22;58808;59.366;17.970;2023-08-08T11:52:53;15.00;99.90
71142;DHT22;58808;59.366;17.970;2023-08-08T11:55:19;15.00;99.90
71142;DHT22;58808;59.366;17.970;2023-08-08T11:57:48;15.00;99.90
71142;DHT22;58808;59.366;17.970;2023-08-08T12:00:15;15.00;99.90
71142;DHT22;58808;59.366;17.970;2023-08-08T12:02:42;15.00;99.90
71142;DHT22;58808;59.366;17.970;2023-08-08T12:05:13;15.00;99.90
71142;DHT22;58808;59.366;17.970;2023-08-08T12:07:42;15.10;99.90
71142;DHT22;58808;59.366;17.970;2023-08-08T12:10:18;15.10;99.90
71142;DHT22;58808;59.366;17.970;2023-08-08T12:12:45;15.10;99.90
71142;DHT22;58808;59.366;17.970;2023-08-08T12:15:12;15.10;99.90
71142;DHT22;58808;59.366;17.970;2023-08-08T12:17:39;15.10;99.90
71142;DHT22;58808;59.366;17.970;2023-08-08T12:20:06;15.20;99.90
71142;DHT22;58808;59.366;17.970;2023-08-08T12:22:32;15.20;99.90
71142;DHT22;58808;59.366;17.970;2023-08-08T12:24:58;15.10;99.90
71142;DHT22;58808;59.366;17.970;2023-08-08T12:27:24;15.10;99.90
71142;DHT22;58808;59.366;17.970;2023-08-08T12:29:50;15.00;99.90
71142;DHT22;58808;59.366;17.970;2023-08-08T12:32:16;15.00;99.90
71142;DHT22;58808;59.366;17.970;2023-08-08T12:34:42;15.00;99.90
71142;DHT22;58808;59.366;17.970;2023-08-08T12:37:07;15.00;99.90
71142;DHT22;58808;59.366;17.970;2023-08-08T12:39:33;15.10;99.90
71142;DHT22;58808;59.366;17.970;2023-08-08T12:41:59;15.10;99.90
71142;DHT22;58808;59.366;17.970;2023-08-08T12:44:24;15.10;99.90
71142;DHT22;58808;59.366;17.970;2023-08-08T12:46:50;15.10;99.90
71142;DHT22;58808;59.366;17.970;2023-08-08T12:49:16;15.00;99.90
71142;DHT22;58808;59.366;17.970;2023-08-08T12:51:42;15.00;99.90
71142;DHT22;58808;59.366;17.970;2023-08-08T12:54:07;15.00;99.90
71142;DHT22;58808;59.366;17.970;2023-08-08T12:56:33;15.00;99.90
71142;DHT22;58808;59.366;17.970;2023-08-08T12:58:58;15.10;99.90
71142;DHT22;58808;59.366;17.970;2023-08-08T13:01:24;15.10;99.90
71142;DHT22;58808;59.366;17.970;2023-08-08T13:03:50;15.10;99.90
71142;DHT22;58808;59.366;17.970;2023-08-08T13:06:16;15.20;99.90
71142;DHT22;58808;59.366;17.970;2023-08-08T13:08:42;15.30;99.90
71142;DHT22;58808;59.366;17.970;2023-08-08T13:11:08;15.30;99.90
71142;DHT22;58808;59.366;17.970;2023-08-08T13:13:34;15.30;99.90
71142;DHT22;58808;59.366;17.970;2023-08-08T13:15:59;15.20;99.90
71142;DHT22;58808;59.366;17.970;2023-08-08T13:18:25;15.30;99.90
71142;DHT22;58808;59.366;17.970;2023-08-08T13:20:51;15.20;99.90
71142;DHT22;58808;59.366;17.970;2023-08-08T13:23:17;15.20;99.90
71142;DHT22;58808;59.366;17.970;2023-08-08T13:25:43;15.20;99.90
71142;DHT22;58808;59.366;17.970;2023-08-08T13:28:09;15.10;99.90
71142;DHT22;58808;59.366;17.970;2023-08-08T13:30:35;15.10;99.90
71142;DHT22;58808;59.366;17.970;2023-08-08T13:33:01;15.10;99.90
71142;DHT22;58808;59.366;17.970;2023-08-08T13:35:27;15.00;99.90
71142;DHT22;58808;59.366;17.970;2023-08-08T13:37:53;15.00;99.90
71142;DHT22;58808;59.366;17.970;2023-08-08T13:40:20;15.00;99.90
71142;DHT22;58808;59.366;17.970;2023-08-08T13:42:46;15.00;99.90
71142;DHT22;58808;59.366;17.970;2023-08-08T13:45:18;15.00;99.90
71142;DHT22;58808;59.366;17.970;2023-08-08T13:47:44;15.00;99.90
71142;DHT22;58808;59.366;17.970;2023-08-08T13:50:10;15.00;99.90
71142;DHT22;58808;59.366;17.970;2023-08-08T13:52:37;15.00;99.90
71142;DHT22;58808;59.366;17.970;2023-08-08T13:55:03;15.00;99.90
71142;DHT22;58808;59.366;17.970;2023-08-08T13:57:29;15.00;99.90
71142;DHT22;58808;59.366;17.970;2023-08-08T13:59:55;15.00;99.90
71142;DHT22;58808;59.366;17.970;2023-08-08T14:02:21;15.00;99.90
71142;DHT22;58808;59.366;17.970;2023-08-08T14:04:46;15.00;99.90
71142;DHT22;58808;59.366;17.970;2023-08-08T14:07:12;14.90;99.90
71142;DHT22;58808;59.366;17.970;2023-08-08T14:09:38;14.80;99.90
71142;DHT22;58808;59.366;17.970;2023-08-08T14:12:04;14.70;99.90
71142;DHT22;58808;59.366;17.970;2023-08-08T14:14:30;14.70;99.90
71142;DHT22;58808;59.366;17.970;2023-08-08T14:16:56;14.70;99.90
71142;DHT22;58808;59.366;17.970;2023-08-08T14:19:22;14.60;99.90
71142;DHT22;58808;59.366;17.970;2023-08-08T14:21:48;14.70;99.90
71142;DHT22;58808;59.366;17.970;2023-08-08T14:24:14;14.70;99.90
71142;DHT22;58808;59.366;17.970;2023-08-08T14:26:40;14.70;99.90
71142;DHT22;58808;59.366;17.970;2023-08-08T14:29:06;14.70;99.90
71142;DHT22;58808;59.366;17.970;2023-08-08T14:31:31;14.60;99.90
71142;DHT22;58808;59.366;17.970;2023-08-08T14:33:57;14.70;99.90
71142;DHT22;58808;59.366;17.970;2023-08-08T14:36:23;14.60;99.90
71142;DHT22;58808;59.366;17.970;2023-08-08T14:38:48;14.50;99.90
71142;DHT22;58808;59.366;17.970;2023-08-08T14:41:14;14.30;99.90
71142;DHT22;58808;59.366;17.970;2023-08-08T14:43:40;14.30;99.90
71142;DHT22;58808;59.366;17.970;2023-08-08T14:46:06;14.10;99.90
71142;DHT22;58808;59.366;17.970;2023-08-08T14:48:31;14.00;99.90
71142;DHT22;58808;59.366;17.970;2023-08-08T14:50:59;13.80;99.90
71142;DHT22;58808;59.366;17.970;2023-08-08T14:53:25;13.80;99.90
71142;DHT22;58808;59.366;17.970;2023-08-08T14:55:51;13.80;99.90
71142;DHT22;58808;59.366;17.970;2023-08-08T14:58:16;13.80;99.90
71142;DHT22;58808;59.366;17.970;2023-08-08T15:00:42;13.80;99.90
71142;DHT22;58808;59.366;17.970;2023-08-08T15:03:08;13.90;99.90
71142;DHT22;58808;59.366;17.970;2023-08-08T15:05:33;13.90;99.90
71142;DHT22;58808;59.366;17.970;2023-08-08T15:07:59;13.90;99.90
71142;DHT22;58808;59.366;17.970;2023-08-08T15:10:25;13.90;99.90
71142;DHT22;58808;59.366;17.970;2023-08-08T15:12:51;13.90;99.90
71142;DHT22;58808;59.366;17.970;2023-08-08T15:15:16;13.90;99.90
71142;DHT22;58808;59.366;17.970;2023-08-08T15:17:45;13.90;99.90
71142;DHT22;58808;59.366;17.970;2023-08-08T15:20:11;13.90;99.90